createdAt,value
2024-02-05T00:03:45.092Z,99.99
2024-02-05T00:08:45.093Z,99.99
2024-02-05T00:13:45.102Z,99.99
2024-02-05T00:18:45.013Z,99.99
2024-02-05T00:23:44.959Z,99.99
2024-02-05T00:28:45.029Z,99.99
2024-02-05T00:33:45.049Z,99.99
2024-02-05T00:38:44.870Z,99.99
2024-02-05T00:43:44.913Z,99.99
2024-02-05T00:48:44.856Z,99.99
2024-02-05T00:53:44.896Z,99.99
2024-02-05T00:58:44.720Z,99.99
2024-02-05T01:03:44.864Z,99.99
2024-02-05T01:08:44.660Z,99.99
2024-02-05T01:13:44.632Z,99.99
2024-02-05T01:18:44.666Z,99.99
2024-02-05T01:23:44.529Z,99.99
2024-02-05T01:28:44.514Z,99.99
2024-02-05T01:33:44.574Z,99.99
2024-02-05T01:38:44.473Z,99.99
2024-02-05T01:43:44.440Z,99.99
2024-02-05T01:48:44.563Z,99.99
2024-02-05T01:53:44.427Z,99.99
2024-02-05T01:58:44.347Z,99.99
2024-02-05T02:03:44.388Z,99.99
2024-02-05T02:08:44.430Z,99.99
2024-02-05T02:13:44.319Z,99.99
2024-02-05T02:18:44.315Z,99.99
2024-02-05T02:23:44.372Z,99.99
2024-02-05T02:28:44.254Z,99.99
2024-02-05T02:33:44.294Z,99.99
2024-02-05T02:38:44.128Z,99.99
2024-02-05T02:43:44.154Z,99.99
2024-02-05T02:48:44.120Z,99.99
2024-02-05T02:53:44.102Z,99.99
2024-02-05T02:58:44.057Z,99.99
2024-02-05T03:03:44.122Z,99.99
2024-02-05T03:08:43.986Z,99.99
2024-02-05T03:13:44.001Z,99.99
2024-02-05T03:18:44.073Z,99.99
2024-02-05T03:23:43.986Z,99.99
2024-02-05T03:28:43.863Z,99.99
2024-02-05T03:33:43.929Z,99.99
2024-02-05T03:38:43.823Z,99.99
2024-02-05T03:43:43.783Z,99.99
2024-02-05T03:48:43.825Z,99.99
2024-02-05T03:53:43.755Z,99.99
2024-02-05T03:58:43.661Z,99.99
2024-02-05T04:03:43.693Z,99.99
2024-02-05T04:08:43.599Z,99.99
2024-02-05T04:13:43.558Z,99.99
2024-02-05T04:18:43.592Z,99.99
2024-02-05T04:23:43.492Z,99.99
2024-02-05T04:28:43.472Z,99.99
2024-02-05T04:33:43.454Z,99.99
2024-02-05T04:38:43.372Z,99.99
2024-02-05T04:43:43.346Z,99.99
2024-02-05T04:48:43.366Z,99.99
2024-02-05T04:53:43.331Z,99.99
2024-02-05T04:58:43.295Z,99.99
2024-02-05T05:03:43.318Z,99.99
2024-02-05T05:08:43.255Z,99.99
2024-02-05T05:13:43.221Z,99.99
2024-02-05T05:18:43.298Z,99.99
2024-02-05T05:23:43.159Z,99.99
2024-02-05T05:28:43.167Z,99.99
2024-02-05T05:33:43.250Z,99.99
2024-02-05T05:38:43.054Z,99.99
2024-02-05T05:43:43.061Z,99.99
2024-02-05T05:48:43.124Z,99.99
2024-02-05T05:53:43.000Z,99.99
2024-02-05T05:58:42.966Z,99.99
2024-02-05T06:03:42.938Z,99.99
2024-02-05T06:08:42.912Z,99.99
2024-02-05T06:13:43.050Z,99.99
2024-02-05T06:18:42.892Z,99.99
2024-02-05T06:23:42.834Z,99.99
2024-02-05T06:28:42.911Z,99.99
2024-02-05T06:33:42.893Z,99.99
2024-02-05T06:38:42.729Z,99.99
2024-02-05T06:43:42.711Z,99.99
2024-02-05T06:48:42.770Z,99.99
2024-02-05T06:53:42.744Z,99.99
2024-02-05T06:58:42.598Z,99.99
2024-02-05T07:03:42.746Z,99.99
2024-02-05T07:08:42.615Z,99.99
2024-02-05T07:13:42.473Z,99.99
2024-02-05T07:18:42.775Z,99.99
2024-02-05T07:23:42.537Z,99.99
2024-02-05T07:28:42.399Z,99.99
2024-02-05T07:33:42.383Z,99.99
2024-02-05T07:38:42.340Z,99.99
2024-02-05T07:43:42.349Z,99.99
2024-02-05T07:48:42.511Z,99.99
2024-02-05T07:53:42.353Z,99.99
2024-02-05T07:58:42.507Z,99.99
2024-02-05T08:03:42.424Z,99.99
2024-02-05T08:08:42.177Z,99.99
2024-02-05T08:13:42.379Z,99.99
2024-02-05T08:18:42.159Z,99.99
2024-02-05T08:23:42.294Z,99.99
2024-02-05T08:28:44.797Z,99.99
2024-02-05T08:33:42.685Z,99.99
2024-02-05T08:38:44.749Z,99.99
2024-02-05T08:43:42.203Z,99.99
2024-02-05T08:48:42.050Z,99.99
2024-02-05T08:53:41.906Z,99.99
2024-02-05T08:58:41.931Z,99.99
2024-02-05T09:03:42.022Z,99.99
2024-02-05T09:08:41.801Z,99.99
2024-02-05T09:13:41.998Z,99.99
2024-02-05T09:18:41.925Z,99.99
2024-02-05T09:23:41.772Z,99.99
2024-02-05T09:28:41.716Z,99.99
2024-02-05T09:33:42.026Z,99.99
2024-02-05T09:38:41.875Z,99.99
2024-02-05T09:43:41.697Z,99.99
2024-02-05T09:48:42.830Z,99.99
2024-02-05T09:53:41.773Z,99.99
2024-02-05T09:58:41.664Z,99.99
2024-02-05T10:03:41.625Z,99.99
2024-02-05T10:08:41.491Z,99.99
2024-02-05T10:13:41.477Z,99.99
2024-02-05T10:18:41.617Z,99.99
2024-02-05T10:23:41.568Z,99.99
2024-02-05T10:28:41.466Z,99.99
2024-02-05T10:33:41.937Z,99.99
2024-02-05T10:38:41.339Z,99.99
2024-02-05T10:43:41.359Z,99.99
2024-02-05T10:48:41.373Z,99.99
2024-02-05T10:53:41.263Z,99.99
2024-02-05T10:58:41.282Z,99.75
2024-02-05T11:03:41.368Z,99.99
2024-02-05T11:08:41.163Z,99.99
2024-02-05T11:13:41.188Z,98.52
2024-02-05T11:18:42.943Z,98.42
2024-02-05T11:23:41.069Z,97.34
2024-02-05T11:28:43.778Z,95.91
2024-02-05T11:33:44.204Z,94.89
2024-02-05T11:38:43.677Z,94.68
2024-02-05T11:43:40.939Z,94.07
2024-02-05T11:48:40.904Z,92.69
2024-02-05T11:53:41.844Z,91.67
2024-02-05T11:58:40.821Z,91.46
2024-02-05T12:03:40.894Z,90.95
2024-02-05T12:08:40.668Z,90.44
2024-02-05T12:13:40.791Z,89.92
2024-02-05T12:18:40.620Z,88.80
2024-02-05T12:23:40.602Z,89.00
2024-02-05T12:28:40.526Z,89.00
2024-02-05T12:33:40.746Z,88.56
2024-02-05T12:38:40.481Z,89.17
2024-02-05T12:43:40.535Z,87.84
2024-02-05T12:48:40.391Z,87.32
2024-02-05T12:53:42.040Z,87.12
2024-02-05T12:58:40.417Z,87.18
2024-02-05T13:03:40.786Z,86.77
2024-02-05T13:08:40.357Z,85.44
2024-02-05T13:13:40.317Z,85.61
2024-02-05T13:18:40.486Z,84.79
2024-02-05T13:23:40.216Z,85.20
2024-02-05T13:28:40.290Z,85.64
2024-02-05T13:33:40.338Z,85.85
2024-02-05T13:38:41.699Z,85.96
2024-02-05T13:43:40.081Z,87.18
2024-02-05T13:48:40.167Z,86.36
2024-02-05T13:53:40.006Z,86.16
2024-02-05T13:58:40.004Z,86.36
2024-02-05T14:03:40.049Z,85.44
2024-02-05T14:08:39.950Z,85.34
2024-02-05T14:13:39.906Z,84.83
2024-02-05T14:18:39.977Z,83.91
2024-02-05T14:23:39.866Z,83.70
2024-02-05T14:28:40.057Z,83.70
2024-02-05T14:33:40.502Z,83.29
2024-02-05T14:38:39.767Z,83.60
2024-02-05T14:43:39.762Z,83.81
2024-02-05T14:48:39.807Z,83.50
2024-02-05T14:53:39.681Z,82.78
2024-02-05T14:58:39.678Z,82.78
2024-02-05T15:03:39.617Z,82.68
2024-02-05T15:08:39.600Z,81.93
2024-02-05T15:13:39.626Z,81.62
2024-02-05T15:18:39.664Z,81.62
2024-02-05T15:23:39.571Z,81.62
2024-02-05T15:28:39.489Z,81.76
2024-02-05T15:33:39.614Z,81.35
2024-02-05T15:38:39.385Z,81.41
2024-02-05T15:43:39.397Z,81.56
2024-02-05T15:48:39.449Z,82.17
2024-02-05T15:53:39.318Z,82.27
2024-02-05T15:58:39.342Z,82.27
2024-02-05T16:03:39.235Z,82.68
2024-02-05T16:08:39.211Z,82.98
2024-02-05T16:13:39.323Z,83.13
2024-02-05T16:18:39.192Z,83.09
2024-02-05T16:23:39.236Z,83.95
2024-02-05T16:28:39.193Z,83.39
2024-02-05T16:33:39.162Z,83.29
2024-02-05T16:38:38.999Z,82.68
2024-02-05T16:43:39.284Z,83.09
2024-02-05T16:48:39.069Z,83.19
2024-02-05T16:53:38.889Z,82.89
2024-02-05T16:58:39.006Z,82.68
2024-02-05T17:03:38.879Z,83.29
2024-02-05T17:08:38.802Z,83.54
2024-02-05T17:13:38.850Z,83.44
2024-02-05T17:18:38.830Z,83.44
2024-02-05T17:23:38.758Z,83.74
2024-02-05T17:28:39.065Z,83.70
2024-02-05T17:33:38.767Z,83.95
2024-02-05T17:38:38.661Z,84.15
2024-02-05T17:43:38.668Z,83.74
2024-02-05T17:48:38.570Z,83.84
2024-02-05T17:53:38.527Z,83.64
2024-02-05T17:58:38.504Z,83.23
2024-02-05T18:03:38.512Z,83.33
2024-02-05T18:08:38.437Z,83.23
2024-02-05T18:13:38.503Z,83.03
2024-02-05T18:18:38.415Z,83.13
2024-02-05T18:23:38.319Z,83.33
2024-02-05T18:28:38.557Z,83.33
2024-02-05T18:33:38.269Z,83.23
2024-02-05T18:38:38.303Z,83.23
2024-02-05T18:43:38.281Z,82.92
2024-02-05T18:48:38.220Z,83.03
2024-02-05T18:53:38.137Z,83.03
2024-02-05T18:58:38.886Z,83.23
2024-02-05T19:03:38.149Z,83.13
2024-02-05T19:08:38.032Z,83.03
2024-02-05T19:13:41.498Z,82.82
2024-02-05T19:18:37.990Z,82.71
2024-02-05T19:23:37.926Z,82.62
2024-02-05T19:28:37.968Z,82.71
2024-02-05T19:33:37.910Z,82.71
2024-02-05T19:38:37.825Z,82.27
2024-02-05T19:43:37.884Z,82.31
2024-02-05T19:48:37.813Z,82.82
2024-02-05T19:53:37.740Z,82.71
2024-02-05T19:58:37.794Z,82.62
2024-02-05T20:03:37.658Z,82.62
2024-02-05T20:08:37.617Z,82.51
2024-02-05T20:13:37.682Z,82.10
2024-02-05T20:18:37.555Z,82.31
2024-02-05T20:23:37.527Z,82.21
2024-02-05T20:28:37.522Z,81.90
2024-02-05T20:33:37.497Z,82.31
2024-02-05T20:38:37.430Z,81.90
2024-02-05T20:43:37.406Z,82.21
2024-02-05T20:48:37.453Z,82.14
2024-02-05T20:53:37.328Z,82.04
2024-02-05T20:58:37.401Z,82.14
2024-02-05T21:03:37.346Z,81.63
2024-02-05T21:08:37.274Z,81.32
2024-02-05T21:13:37.237Z,81.22
2024-02-05T21:18:37.238Z,81.01
2024-02-05T21:23:37.203Z,80.91
2024-02-05T21:28:37.262Z,81.12
2024-02-05T21:33:37.109Z,81.73
2024-02-05T21:38:37.400Z,81.15
2024-02-05T21:43:37.094Z,81.57
2024-02-05T21:48:37.107Z,81.46
2024-02-05T21:53:36.980Z,81.15
2024-02-05T21:58:37.018Z,81.36
2024-02-05T22:03:36.929Z,81.36
2024-02-05T22:08:36.990Z,81.67
2024-02-05T22:13:36.918Z,81.67
2024-02-05T22:18:36.874Z,81.26
2024-02-05T22:23:36.798Z,81.98
2024-02-05T22:28:36.832Z,81.81
2024-02-05T22:33:37.531Z,81.57
2024-02-05T22:38:36.684Z,81.91
2024-02-05T22:43:36.654Z,82.01
2024-02-05T22:48:36.659Z,81.50
2024-02-05T22:53:36.533Z,81.91
2024-02-05T22:58:36.591Z,81.40
2024-02-05T23:03:36.473Z,80.99
2024-02-05T23:08:36.460Z,81.29
2024-02-05T23:13:36.497Z,81.40
2024-02-05T23:18:36.419Z,81.50
2024-02-05T23:23:36.387Z,81.09
2024-02-05T23:28:36.344Z,80.88
2024-02-05T23:33:36.393Z,80.88
2024-02-05T23:38:36.220Z,81.34
2024-02-05T23:43:36.296Z,81.02
2024-02-05T23:48:36.254Z,80.92
2024-02-05T23:53:36.120Z,80.62
2024-02-05T23:58:36.284Z,80.47
